Time;durP1;ratioP1;P1;durP2;ratioP2;P2;SDS_P1;SDS_P2;PMS_P1;PMS_P2;Temp;Humidity;BMP_temperature;BMP_pressure;BME280_temperature;BME280_humidity;BME280_pressure;Samples;Min_cycle;Max_cycle;Signal;HPM_P1;HPM_P2
2023/06/30 00:00:15;;;;;;;23.50;17.00;;;;;;;28.99;69.52;100732.25;5059697;28;65517;-47
2023/06/30 00:02:50;;;;;;;35.45;22.65;;;;;;;29.09;77.09;100732.69;5057922;28;69966;-46
2023/06/30 00:05:22;;;;;;;54.93;34.97;;;;;;;29.22;79.23;100743.41;5062608;28;65049;-47
2023/06/30 00:07:54;;;;;;;59.88;36.22;;;;;;;29.27;80.55;100746.31;5052462;28;69545;-45
2023/06/30 00:10:26;;;;;;;46.22;33.42;;;;;;;29.33;80.66;100734.66;5063464;28;65411;-46
2023/06/30 00:12:57;;;;;;;39.27;27.50;;;;;;;29.34;81.23;100741.75;5064971;28;68629;-46
2023/06/30 00:15:28;;;;;;;32.37;24.20;;;;;;;29.26;80.76;100727.63;5059610;28;65202;-45
2023/06/30 00:17:59;;;;;;;31.52;21.92;;;;;;;29.37;81.22;100730.50;5065177;28;69532;-44
2023/06/30 00:20:33;;;;;;;26.60;19.93;;;;;;;29.48;82.23;100747.09;5059376;28;66653;-44
2023/06/30 00:23:04;;;;;;;30.73;20.40;;;;;;;29.54;82.13;100748.94;5060978;28;69444;-46
2023/06/30 00:25:35;;;;;;;27.13;20.10;;;;;;;29.59;81.82;100746.44;5060636;28;65745;-47
2023/06/30 00:28:07;;;;;;;25.80;20.07;;;;;;;29.63;82.02;100753.06;5061448;28;69937;-44
2023/06/30 00:30:38;;;;;;;20.13;18.03;;;;;;;29.40;81.49;100716.56;5057247;28;66757;-43
2023/06/30 00:33:10;;;;;;;28.00;18.38;;;;;;;29.59;81.12;100743.72;5063636;28;70342;-46
2023/06/30 00:35:43;;;;;;;20.80;18.63;;;;;;;29.73;81.38;100755.34;5031314;28;66201;-44
2023/06/30 00:38:15;;;;;;;24.67;20.98;;;;;;;29.76;81.69;100755.72;5057362;28;70160;-46
2023/06/30 00:40:46;;;;;;;25.55;21.20;;;;;;;29.82;81.13;100762.97;5060069;28;65875;-45
2023/06/30 00:43:18;;;;;;;33.08;26.13;;;;;;;29.89;81.46;100762.09;5044644;28;70219;-45
2023/06/30 00:45:49;;;;;;;40.30;24.17;;;;;;;29.88;81.66;100763.97;5065247;28;66035;-43
2023/06/30 00:48:20;;;;;;;31.23;22.63;;;;;;;29.96;81.57;100765.59;5060692;28;69803;-43
2023/06/30 00:50:51;;;;;;;32.30;21.63;;;;;;;29.96;81.33;100771.00;5059636;28;66589;-46
2023/06/30 00:53:24;;;;;;;27.00;20.17;;;;;;;29.99;81.31;100770.59;5043098;28;70074;-45
2023/06/30 00:55:55;;;;;;;27.13;20.25;;;;;;;30.03;80.31;100766.38;5052674;28;67253;-45
2023/06/30 00:58:27;;;;;;;24.60;20.60;;;;;;;30.05;80.05;100769.72;5035973;28;69379;-46
2023/06/30 01:01:21;;;;;;;29.48;20.80;;;;;;;29.47;79.89;100681.38;5059210;28;65356;-47
2023/06/30 01:04:02;;;;;;;25.42;18.63;;;;;;;29.99;80.10;100765.16;5053720;28;71325;-47
2023/06/30 01:06:40;;;;;;;16.15;14.80;;;;;;;30.16;76.71;100777.13;5059419;28;67096;-45
2023/06/30 01:09:21;;;;;;;15.68;14.13;;;;;;;29.72;76.45;100711.22;5020980;28;70200;-46
2023/06/30 01:11:52;;;;;;;15.23;13.77;;;;;;;30.12;75.52;100775.91;5036112;28;67612;-45
2023/06/30 01:14:26;;;;;;;16.95;14.15;;;;;;;29.77;75.11;100718.69;5053897;28;70798;-46
2023/06/30 01:16:59;;;;;;;13.93;12.70;;;;;;;30.33;74.65;100799.09;5057054;28;66498;-43
2023/06/30 01:19:30;;;;;;;13.93;12.63;;;;;;;30.34;74.58;100795.38;5059382;28;70806;-43
2023/06/30 01:22:13;;;;;;;14.48;13.30;;;;;;;29.67;74.00;100692.16;5040994;28;66299;-45
2023/06/30 01:24:47;;;;;;;18.07;12.37;;;;;;;30.38;74.52;100801.16;5058327;28;70868;-43
2023/06/30 01:27:21;;;;;;;13.02;12.13;;;;;;;30.35;74.17;100790.78;5057123;28;66763;-43
2023/06/30 01:29:53;;;;;;;12.55;11.70;;;;;;;30.44;74.00;100803.81;5012310;28;70152;-43
2023/06/30 01:32:26;;;;;;;13.70;12.60;;;;;;;30.38;73.58;100787.63;5047579;28;65890;-45
2023/06/30 01:34:58;;;;;;;13.80;11.90;;;;;;;30.04;73.75;100724.78;5060455;28;69406;-44
2023/06/30 01:37:31;;;;;;;12.45;11.52;;;;;;;30.51;73.33;100790.25;5060612;28;66282;-44
2023/06/30 01:40:04;;;;;;;11.93;11.10;;;;;;;30.36;73.50;100776.19;5059340;28;69961;-46
2023/06/30 01:42:37;;;;;;;12.10;11.25;;;;;;;30.55;72.83;100796.88;5059905;28;66814;-44
2023/06/30 01:45:11;;;;;;;13.23;12.13;;;;;;;30.53;73.05;100803.56;5057656;28;69896;-44
2023/06/30 01:47:43;;;;;;;11.63;10.85;;;;;;;30.47;72.88;100775.47;5058688;28;65583;-45
2023/06/30 01:50:15;;;;;;;;;;;;;;;30.31;74.42;100800.38;5058795;28;70082;-44
2023/06/30 01:52:46;;;;;;;12.80;11.50;;;;;;;30.44;72.66;100773.22;5046900;28;65840;-43
2023/06/30 01:55:18;;;;;;;;;;;;;;;30.34;73.89;100805.34;5058624;28;70570;-46
2023/06/30 01:57:49;;;;;;;12.18;11.18;;;;;;;30.64;72.23;100809.06;5055917;28;65228;-43
2023/06/30 02:00:21;;;;;;;11.73;10.75;;;;;;;30.66;72.72;100801.56;5038907;28;70461;-43
2023/06/30 02:02:52;;;;;;;10.93;10.13;;;;;;;30.71;72.54;100811.75;5060399;28;66451;-44
2023/06/30 02:05:23;;;;;;;11.02;10.32;;;;;;;30.75;72.26;100810.25;5058671;28;70172;-45
2023/06/30 02:07:55;;;;;;;11.05;10.32;;;;;;;30.73;71.63;100801.53;5057467;28;65983;-44
2023/06/30 02:10:26;;;;;;;10.88;10.02;;;;;;;30.76;71.85;100809.22;5058554;28;69048;-42
2023/06/30 02:12:58;;;;;;;10.13;9.43;;;;;;;30.81;71.78;100811.25;5068443;28;65987;-47
2023/06/30 02:15:29;;;;;;;9.82;9.23;;;;;;;30.83;71.52;100818.13;5067395;28;69592;-46
2023/06/30 02:18:03;;;;;;;9.65;9.10;;;;;;;30.87;71.46;100813.09;5059719;28;66813;-46
2023/06/30 02:20:34;;;;;;;9.63;9.07;;;;;;;30.91;71.38;100811.59;5058551;28;70426;-45
2023/06/30 02:23:05;;;;;;;9.83;9.13;;;;;;;30.92;70.86;100810.53;5058648;28;66045;-46
2023/06/30 02:25:36;;;;;;;9.17;8.57;;;;;;;30.96;70.81;100805.53;5057092;28;70571;-45
2023/06/30 02:28:07;;;;;;;9.63;9.03;;;;;;;30.99;70.96;100808.59;5058380;28;66620;-45
2023/06/30 02:30:39;;;;;;;9.73;8.93;;;;;;;31.00;70.38;100810.25;5057698;28;70181;-45
2023/06/30 02:33:11;;;;;;;10.27;9.40;;;;;;;31.03;70.43;100815.22;5057530;28;66098;-46
2023/06/30 02:35:42;;;;;;;9.73;8.90;;;;;;;31.05;70.23;100813.13;5054332;28;69958;-46
2023/06/30 02:38:15;;;;;;;10.48;9.43;;;;;;;31.08;70.42;100812.69;5057889;28;66932;-46
2023/06/30 02:40:48;;;;;;;9.20;8.48;;;;;;;31.11;69.87;100793.25;5057958;28;69305;-43
2023/06/30 02:43:19;;;;;;;9.00;8.25;;;;;;;31.13;69.97;100804.72;5040931;28;65829;-46
2023/06/30 02:45:51;;;;;;;9.38;8.73;;;;;;;31.16;70.00;100793.44;5034173;28;70045;-43
2023/06/30 02:48:23;;;;;;;8.65;8.10;;;;;;;31.04;69.73;100773.56;5043337;28;65159;-45
2023/06/30 02:50:54;;;;;;;9.50;8.70;;;;;;;31.18;69.82;100779.66;5054532;28;70699;-42
2023/06/30 02:53:25;;;;;;;9.25;8.55;;;;;;;31.21;69.71;100781.09;5045574;28;66435;-46
2023/06/30 02:55:57;;;;;;;8.43;7.43;;;;;;;31.26;69.81;100781.22;5059453;28;70049;-45
2023/06/30 02:58:28;;;;;;;8.02;7.43;;;;;;;31.28;69.12;100785.38;5057388;28;66213;-45
2023/06/30 03:01:00;;;;;;;7.78;7.28;;;;;;;31.24;69.55;100767.91;5033658;28;68937;-44
2023/06/30 03:03:32;;;;;;;7.93;7.53;;;;;;;31.33;69.57;100776.56;5040425;28;64857;-44
2023/06/30 03:06:05;;;;;;;8.07;7.50;;;;;;;31.36;69.34;100776.16;5038392;28;70932;-44
2023/06/30 03:08:38;;;;;;;7.90;7.40;;;;;;;31.36;69.03;100771.56;5041039;28;65622;-45
2023/06/30 03:11:13;;;;;;;9.10;7.60;;;;;;;31.37;69.12;100769.66;5036047;28;69826;-43
2023/06/30 03:13:46;;;;;;;7.13;6.60;;;;;;;31.42;69.27;100774.41;5035980;28;65086;-46
2023/06/30 03:16:17;;;;;;;7.65;7.15;;;;;;;31.21;68.44;100735.03;5039995;28;70172;-45
2023/06/30 03:18:48;;;;;;;9.57;7.20;;;;;;;31.40;68.66;100766.53;5034713;28;66100;-46
2023/06/30 03:21:20;;;;;;;7.53;7.13;;;;;;;31.45;68.78;100763.94;5015255;28;70250;-46
2023/06/30 03:23:51;;;;;;;8.02;7.47;;;;;;;31.41;68.85;100760.03;5031013;28;66130;-42
2023/06/30 03:26:23;;;;;;;7.07;6.57;;;;;;;31.48;68.54;100749.09;5034934;28;69913;-45
2023/06/30 03:28:54;;;;;;;7.15;6.75;;;;;;;31.45;68.55;100742.25;5034196;28;66477;-44
2023/06/30 03:31:26;;;;;;;6.88;6.47;;;;;;;31.52;68.55;100753.84;5048000;28;69097;-45
2023/06/30 03:33:59;;;;;;;6.43;6.03;;;;;;;31.37;68.12;100724.44;5034517;28;66256;-47
2023/06/30 03:36:30;;;;;;;6.72;6.38;;;;;;;31.56;68.21;100746.91;5037250;28;70480;-43
2023/06/30 03:39:02;;;;;;;7.13;6.10;;;;;;;31.58;68.13;100747.50;5029861;28;66058;-43
2023/06/30 03:41:33;;;;;;;6.80;6.30;;;;;;;31.61;68.04;100735.38;5036845;28;70290;-43
2023/06/30 03:44:05;;;;;;;6.60;6.20;;;;;;;31.61;68.02;100738.09;5029298;28;66345;-44
2023/06/30 03:46:37;;;;;;;6.25;5.85;;;;;;;31.65;67.96;100735.75;5024915;28;69961;-47
2023/06/30 03:49:08;;;;;;;6.25;5.78;;;;;;;31.52;67.96;100705.06;5034393;28;65466;-44
2023/06/30 03:51:41;;;;;;;6.20;5.80;;;;;;;31.55;67.42;100720.88;5039817;28;70465;-45
2023/06/30 03:54:16;;;;;;;5.93;5.63;;;;;;;31.63;67.44;100721.63;5036249;28;66256;-45
2023/06/30 03:56:47;;;;;;;5.97;5.60;;;;;;;31.69;67.88;100728.81;5054537;28;68945;-44
2023/06/30 03:59:18;;;;;;;6.40;6.00;;;;;;;31.73;68.13;100728.16;5029440;28;66184;-46
2023/06/30 04:01:50;;;;;;;5.57;5.25;;;;;;;31.75;67.81;100722.47;5029771;28;70331;-44
2023/06/30 04:04:21;;;;;;;5.82;5.45;;;;;;;31.78;67.62;100719.31;5034918;28;65425;-47
2023/06/30 04:06:53;;;;;;;6.00;5.35;;;;;;;31.75;67.65;100719.75;5033957;28;70241;-45
2023/06/30 04:09:24;;;;;;;5.80;5.40;;;;;;;31.72;67.68;100714.81;5039058;28;66686;-45
2023/06/30 04:11:56;;;;;;;5.40;5.00;;;;;;;31.63;67.48;100689.91;5042179;28;69760;-45
2023/06/30 04:14:27;;;;;;;5.72;5.22;;;;;;;31.73;67.29;100705.59;5044001;28;65771;-44
2023/06/30 04:16:59;;;;;;;5.50;5.20;;;;;;;31.88;67.44;100722.28;5044327;28;70337;-45
2023/06/30 04:19:30;;;;;;;5.60;5.30;;;;;;;31.84;67.08;100710.22;5058833;28;66315;-46
2023/06/30 04:22:02;;;;;;;5.55;5.15;;;;;;;31.92;67.22;100726.22;5058754;28;69857;-45
2023/06/30 04:24:34;;;;;;;5.43;5.13;;;;;;;31.96;67.07;100719.28;5060936;28;65455;-44
2023/06/30 04:27:06;;;;;;;4.80;4.50;;;;;;;31.91;67.02;100702.88;5060973;28;71205;-43
2023/06/30 04:29:37;;;;;;;5.38;5.05;;;;;;;31.87;67.10;100704.34;5067651;28;66876;-44
2023/06/30 04:32:08;;;;;;;5.38;4.97;;;;;;;31.95;67.01;100705.94;5060829;28;69143;-43
2023/06/30 04:34:40;;;;;;;5.70;5.30;;;;;;;32.04;67.08;100712.72;5060504;28;66109;-46
2023/06/30 04:37:11;;;;;;;5.17;4.90;;;;;;;32.05;66.61;100719.78;5058469;28;70007;-44
2023/06/30 04:39:42;;;;;;;4.97;4.63;;;;;;;32.02;67.07;100699.38;5063774;28;65355;-44
2023/06/30 04:42:14;;;;;;;5.47;4.45;;;;;;;32.08;66.69;100707.63;5061499;28;69752;-44
2023/06/30 04:44:45;;;;;;;4.90;4.50;;;;;;;32.11;66.78;100707.16;5050722;28;66398;-45
2023/06/30 04:47:17;;;;;;;5.18;4.78;;;;;;;32.12;66.48;100695.25;5057153;28;70121;-44
2023/06/30 04:49:48;;;;;;;5.25;4.95;;;;;;;32.13;66.76;100694.19;5061602;28;66831;-44
2023/06/30 04:52:20;;;;;;;4.43;4.13;;;;;;;32.05;66.57;100666.34;5058851;28;70293;-44
2023/06/30 04:54:51;;;;;;;4.63;4.32;;;;;;;32.01;66.48;100653.47;5061358;28;65671;-43
2023/06/30 04:57:23;;;;;;;4.50;4.20;;;;;;;32.17;66.42;100671.78;5059136;28;70385;-46
2023/06/30 04:59:54;;;;;;;5.47;5.00;;;;;;;32.22;66.21;100673.78;5060017;28;66759;-47
2023/06/30 05:02:26;;;;;;;4.90;4.60;;;;;;;32.21;66.13;100666.72;5060427;28;70023;-47
2023/06/30 05:04:57;;;;;;;5.30;4.82;;;;;;;32.20;66.30;100665.06;5060246;28;66245;-45
2023/06/30 05:07:28;;;;;;;5.15;4.85;;;;;;;32.23;66.18;100659.16;5051952;28;70579;-43
2023/06/30 05:10:00;;;;;;;4.70;4.40;;;;;;;32.20;66.06;100633.31;5055810;28;66851;-43
2023/06/30 05:12:31;;;;;;;6.85;4.45;;;;;;;32.27;66.01;100638.63;5057492;28;69138;-46
2023/06/30 05:15:03;;;;;;;4.80;4.38;;;;;;;32.30;66.01;100630.00;5058925;28;66282;-47
2023/06/30 05:17:34;;;;;;;4.50;4.10;;;;;;;32.33;65.71;100624.13;5056088;28;70136;-46
2023/06/30 05:20:08;;;;;;;;;;;;;;;32.04;66.42;100631.31;5037842;28;66571;-41
2023/06/30 05:22:39;;;;;;;4.65;4.35;;;;;;;32.34;65.93;100630.38;5057504;28;70445;-46
2023/06/30 05:25:10;;;;;;;4.60;4.40;;;;;;;32.37;65.61;100622.56;5054597;28;66722;-46
2023/06/30 05:27:41;;;;;;;4.38;4.15;;;;;;;32.40;65.64;100613.97;5054335;28;70051;-46
2023/06/30 05:30:13;;;;;;;4.50;4.18;;;;;;;32.27;65.54;100587.88;5057533;28;66512;-42
2023/06/30 05:32:44;;;;;;;4.55;4.28;;;;;;;32.43;65.46;100602.63;5058879;28;69875;-45
2023/06/30 05:35:15;;;;;;;4.43;4.15;;;;;;;32.46;65.48;100599.47;5060606;28;66242;-44
2023/06/30 05:37:47;;;;;;;4.47;4.28;;;;;;;32.52;65.43;100602.31;5053898;28;70135;-47
2023/06/30 05:40:18;;;;;;;;;;;;;;;32.25;65.82;100591.91;5055208;28;66677;-45
2023/06/30 05:42:49;;;;;;;4.30;4.00;;;;;;;32.51;65.15;100587.06;5056510;28;70314;-46
2023/06/30 05:45:20;;;;;;;4.28;4.07;;;;;;;32.59;64.95;100594.84;5056508;28;66591;-45
2023/06/30 05:47:52;;;;;;;4.43;4.03;;;;;;;32.62;65.08;100583.50;5055401;28;69729;-46
2023/06/30 05:50:24;;;;;;;5.15;4.45;;;;;;;32.65;64.92;100572.16;5056700;28;65303;-43
2023/06/30 05:52:55;;;;;;;4.20;4.00;;;;;;;32.43;64.77;100534.78;5035083;28;69074;-46
2023/06/30 05:55:27;;;;;;;5.45;4.40;;;;;;;32.68;64.81;100555.38;5058198;28;67305;-45
2023/06/30 05:57:58;;;;;;;;;;;;;;;32.42;65.21;100567.56;5058671;28;70195;-44
2023/06/30 06:00:29;;;;;;;4.95;4.00;;;;;;;32.69;64.73;100557.03;5057803;28;66112;-46
2023/06/30 06:03:01;;;;;;;3.80;3.60;;;;;;;32.72;64.84;100562.00;5056567;28;70591;-47
2023/06/30 06:05:32;;;;;;;4.40;4.15;;;;;;;32.27;65.00;100478.50;5050805;28;65870;-46
2023/06/30 06:08:04;;;;;;;7.30;4.32;;;;;;;32.39;64.57;100482.00;5039757;28;70177;-45
2023/06/30 06:10:35;;;;;;;4.00;3.80;;;;;;;32.86;64.47;100547.06;5059690;28;65964;-47
2023/06/30 06:13:06;;;;;;;4.82;4.25;;;;;;;32.75;64.46;100518.06;5059755;28;69861;-44
2023/06/30 06:15:38;;;;;;;4.57;4.28;;;;;;;32.91;64.55;100547.16;5039076;28;66689;-46
2023/06/30 06:18:09;;;;;;;3.42;3.20;;;;;;;32.92;63.92;100543.38;5047157;28;69847;-42
2023/06/30 06:20:40;;;;;;;3.63;3.40;;;;;;;32.98;64.16;100538.84;5067617;28;66369;-51
2023/06/30 06:23:12;;;;;;;4.75;4.38;;;;;;;32.93;64.21;100517.03;5059404;28;70380;-44
2023/06/30 06:25:43;;;;;;;3.90;3.70;;;;;;;32.97;64.18;100506.50;5055764;28;66336;-45
2023/06/30 06:28:15;;;;;;;3.97;3.75;;;;;;;33.05;63.87;100511.59;5022307;28;69520;-43
2023/06/30 06:30:46;;;;;;;4.00;3.80;;;;;;;32.98;63.59;100489.13;5058572;28;66653;-47
2023/06/30 06:33:18;;;;;;;4.72;3.92;;;;;;;33.11;64.02;100507.88;5059033;28;70273;-46
2023/06/30 06:35:52;;;;;;;3.95;3.75;;;;;;;33.12;63.59;100501.38;5059008;28;65985;-45
2023/06/30 06:38:23;;;;;;;3.60;3.40;;;;;;;33.16;63.84;100497.09;5055002;28;69781;-44
2023/06/30 06:40:54;;;;;;;4.28;3.97;;;;;;;33.04;63.62;100474.59;5061040;28;66803;-47
2023/06/30 06:43:27;;;;;;;3.88;3.60;;;;;;;33.12;63.47;100480.44;5060574;28;69673;-46
2023/06/30 06:45:58;;;;;;;4.28;3.97;;;;;;;33.27;63.38;100493.50;5060615;28;65611;-44
2023/06/30 06:48:30;;;;;;;;;;;;;;;33.01;63.61;100483.25;5058766;28;70057;-46
2023/06/30 06:51:03;;;;;;;3.78;3.58;;;;;;;32.71;63.34;100386.53;5058750;28;66274;-44
2023/06/30 06:53:35;;;;;;;3.75;3.55;;;;;;;33.35;63.05;100463.19;5060858;28;70282;-46
2023/06/30 06:56:06;;;;;;;3.95;3.75;;;;;;;33.42;63.16;100456.75;5040864;28;66571;-43
2023/06/30 06:58:38;;;;;;;3.75;3.55;;;;;;;33.44;62.90;100454.63;5059753;28;70331;-44
2023/06/30 07:01:10;;;;;;;;;;;;;;;33.20;63.47;100452.03;5060473;28;65677;-44
2023/06/30 07:03:41;;;;;;;3.85;3.47;;;;;;;33.48;62.86;100444.88;5057280;28;70580;-45
2023/06/30 07:06:13;;;;;;;3.80;3.58;;;;;;;33.49;62.91;100436.50;5058546;28;65888;-47
2023/06/30 07:08:44;;;;;;;3.88;3.58;;;;;;;33.57;62.59;100432.53;5059118;28;69084;-45
2023/06/30 07:11:15;;;;;;;3.90;3.60;;;;;;;33.63;62.54;100442.44;5056189;28;66623;-45
2023/06/30 07:13:47;;;;;;;3.35;3.15;;;;;;;33.63;62.49;100428.84;5059170;28;70475;-46
2023/06/30 07:16:18;;;;;;;3.05;2.95;;;;;;;33.70;61.93;100424.03;5058607;28;65253;-45
2023/06/30 07:18:49;;;;;;;3.20;3.00;;;;;;;33.56;62.49;100399.06;5054362;28;70666;-44
2023/06/30 07:21:21;;;;;;;3.33;2.97;;;;;;;33.67;62.36;100410.94;5051588;28;65461;-45
2023/06/30 07:23:52;;;;;;;3.60;3.40;;;;;;;33.40;62.19;100366.44;5052812;28;70101;-44
2023/06/30 07:26:23;;;;;;;3.15;2.95;;;;;;;33.76;62.01;100423.00;5061054;28;65339;-44
2023/06/30 07:28:55;;;;;;;3.10;2.85;;;;;;;33.81;62.15;100427.72;5054623;28;69182;-46
2023/06/30 07:31:30;;;;;;;3.33;3.13;;;;;;;33.72;62.06;100402.84;5058940;28;66341;-47
2023/06/30 07:34:02;;;;;;;3.53;3.33;;;;;;;33.89;62.17;100430.00;5053606;28;70386;-44
2023/06/30 07:36:34;;;;;;;3.40;3.20;;;;;;;33.77;61.82;100411.09;5049302;28;66389;-44
2023/06/30 07:39:06;;;;;;;3.33;2.92;;;;;;;33.90;61.74;100414.50;5057572;28;71274;-46
2023/06/30 07:41:37;;;;;;;3.53;3.17;;;;;;;33.91;61.80;100414.25;5062508;28;67429;-46
2023/06/30 07:44:11;;;;;;;3.50;3.20;;;;;;;33.81;61.53;100395.88;5051361;28;71006;-44
2023/06/30 07:46:42;;;;;;;3.15;2.95;;;;;;;33.96;61.62;100402.59;5065247;28;65553;-44
2023/06/30 07:49:14;;;;;;;;;;;;;;;33.68;61.95;100395.44;5063018;28;70275;-46
2023/06/30 07:51:46;;;;;;;3.20;3.00;;;;;;;33.96;61.88;100397.16;5062702;28;67006;-44
2023/06/30 07:54:18;;;;;;;3.28;3.08;;;;;;;33.98;61.69;100401.25;5052575;28;70162;-46
2023/06/30 07:56:49;;;;;;;3.33;3.13;;;;;;;33.99;61.81;100397.50;5061947;28;66033;-46
2023/06/30 07:59:21;;;;;;;3.13;2.92;;;;;;;34.00;61.52;100392.88;5060256;28;70039;-47
2023/06/30 08:01:52;;;;;;;3.40;3.00;;;;;;;33.99;61.51;100393.91;5061270;28;66271;-43
2023/06/30 08:04:23;;;;;;;3.80;3.17;;;;;;;33.98;61.43;100384.13;5038585;28;69948;-44
2023/06/30 08:06:55;;;;;;;3.38;3.13;;;;;;;34.06;61.24;100375.53;5054289;28;65947;-45
2023/06/30 08:09:26;;;;;;;4.07;3.88;;;;;;;33.91;61.39;100357.13;5061574;28;70239;-45
2023/06/30 08:11:57;;;;;;;5.57;3.70;;;;;;;33.96;61.07;100365.34;5061046;28;66628;-44
2023/06/30 08:14:29;;;;;;;4.47;3.67;;;;;;;34.05;61.23;100386.72;5060755;28;69616;-47
2023/06/30 08:17:00;;;;;;;3.28;3.08;;;;;;;34.00;61.51;100387.41;5058894;28;66252;-45
2023/06/30 08:19:31;;;;;;;3.72;3.28;;;;;;;34.04;61.15;100388.53;5060824;28;69904;-45
2023/06/30 08:22:18;;;;;;;5.93;3.72;;;;;;;33.97;61.61;100363.44;5059905;28;66357;-46
2023/06/30 08:24:49;;;;;;;;;;;;;;;33.77;62.03;100378.44;5060857;28;70430;-46
2023/06/30 08:27:23;;;;;;;3.53;3.33;;;;;;;34.03;61.32;100376.03;5063898;28;43071;-45
2023/06/30 08:29:54;;;;;;;3.67;3.47;;;;;;;34.01;61.78;100370.81;5059941;28;69954;-45
2023/06/30 08:32:25;;;;;;;3.50;3.20;;;;;;;34.08;61.16;100361.69;5052253;28;66619;-45
2023/06/30 08:34:57;;;;;;;3.40;3.10;;;;;;;34.06;61.47;100372.81;5060031;28;70121;-45
2023/06/30 08:37:28;;;;;;;4.10;3.70;;;;;;;34.08;61.47;100388.91;5060903;28;65701;-45
2023/06/30 08:40:00;;;;;;;3.97;3.67;;;;;;;34.05;61.60;100392.16;5058535;28;70117;-46
2023/06/30 08:42:35;;;;;;;4.20;2.95;;;;;;;33.97;61.87;100404.25;5060521;28;65153;-49
2023/06/30 08:45:08;;;;;;;3.85;3.55;;;;;;;34.06;61.75;100454.47;5058541;28;70151;-46
2023/06/30 08:47:39;;;;;;;6.70;3.60;;;;;;;33.99;62.17;100468.25;5057282;28;66334;-42
2023/06/30 08:50:12;;;;;;;4.43;3.60;;;;;;;33.87;63.37;100469.41;5058647;28;69562;-42
2023/06/30 08:52:44;;;;;;;5.28;3.55;;;;;;;33.94;64.19;100481.78;5058162;28;65416;-42
2023/06/30 08:55:15;;;;;;;9.43;4.20;;;;;;;33.90;64.70;100496.13;5058918;28;70332;-43
2023/06/30 08:57:46;;;;;;;;;;;;;;;33.62;65.76;100506.03;5057846;28;66239;-43
2023/06/30 09:00:18;;;;;;;4.05;3.75;;;;;;;33.79;65.64;100511.47;5057805;28;70031;-49
2023/06/30 09:02:50;;;;;;;4.97;3.92;;;;;;;33.81;65.35;100520.22;5060844;28;66081;-42
2023/06/30 09:05:27;;;;;;;3.92;3.53;;;;;;;33.64;65.61;100503.91;5059644;28;69955;-42
2023/06/30 09:07:58;;;;;;;4.38;3.95;;;;;;;33.74;65.97;100525.84;5059883;28;65388;-44
2023/06/30 09:10:34;;;;;;;4.15;3.78;;;;;;;33.70;66.46;100530.09;5060371;28;69471;-43
2023/06/30 09:13:06;;;;;;;4.63;3.35;;;;;;;33.66;66.25;100550.72;5058712;28;66695;-45
2023/06/30 09:15:40;;;;;;;4.20;3.80;;;;;;;33.64;66.23;100558.31;5060147;28;70218;-45
2023/06/30 09:18:13;;;;;;;3.75;3.55;;;;;;;33.36;66.75;100527.34;5041247;28;66311;-44
2023/06/30 09:20:44;;;;;;;5.07;3.50;;;;;;;33.44;66.46;100547.06;5061665;28;70394;-43
2023/06/30 09:23:15;;;;;;;3.40;3.10;;;;;;;33.51;66.64;100580.34;5057371;28;66316;-44
2023/06/30 09:25:47;;;;;;;3.72;3.40;;;;;;;33.44;66.45;100587.84;5058984;28;70370;-42
2023/06/30 09:28:19;;;;;;;3.25;3.03;;;;;;;33.29;66.93;100556.59;5043713;28;65482;-45
2023/06/30 09:30:50;;;;;;;3.45;3.15;;;;;;;33.39;67.40;100561.38;5052799;28;69170;-46
2023/06/30 09:33:22;;;;;;;3.33;3.03;;;;;;;33.37;66.14;100536.31;5057265;28;65708;-46
2023/06/30 09:35:53;;;;;;;3.42;3.13;;;;;;;33.31;67.58;100524.53;5054937;28;70163;-45
2023/06/30 09:38:28;;;;;;;3.78;3.47;;;;;;;33.27;66.59;100520.69;5054790;28;66072;-44
2023/06/30 09:41:03;;;;;;;3.28;2.97;;;;;;;32.62;66.81;100426.00;5061612;28;70260;-47
2023/06/30 09:43:36;;;;;;;5.35;2.92;;;;;;;33.00;67.09;100500.63;5054736;28;66271;-45
2023/06/30 09:46:07;;;;;;;3.42;2.70;;;;;;;33.19;66.41;100548.25;5057400;28;70931;-46
2023/06/30 09:48:39;;;;;;;2.63;2.42;;;;;;;33.08;66.03;100546.41;5048494;28;65933;-45
2023/06/30 09:51:12;;;;;;;3.75;2.88;;;;;;;33.14;66.49;100562.56;5060563;28;69752;-46
2023/06/30 09:53:43;;;;;;;3.95;3.63;;;;;;;32.45;68.26;100488.34;5051687;28;65628;-48
2023/06/30 09:56:23;;;;;;;5.50;3.85;;;;;;;32.80;69.24;100561.63;5058685;28;70013;-45
2023/06/30 09:58:57;;;;;;;7.93;3.38;;;;;;;32.65;69.67;100555.84;5043569;28;66519;-45
2023/06/30 10:01:31;;;;;;;7.65;2.83;;;;;;;32.08;70.63;100474.28;5053923;28;69998;-45
2023/06/30 10:04:02;;;;;;;3.88;3.47;;;;;;;32.57;70.85;100554.38;5052370;28;66321;-47
2023/06/30 10:06:36;;;;;;;7.32;3.97;;;;;;;32.60;71.07;100553.88;5052448;28;70607;-45
2023/06/30 10:09:08;;;;;;;7.93;4.38;;;;;;;32.57;71.36;100553.50;5056789;28;66463;-49
2023/06/30 10:11:41;;;;;;;6.45;3.67;;;;;;;32.46;71.92;100538.94;5052991;28;68979;-46
2023/06/30 10:14:14;;;;;;;6.75;4.03;;;;;;;32.52;72.13;100545.28;5054736;28;65557;-48
2023/06/30 10:16:48;;;;;;;6.82;4.05;;;;;;;32.44;72.35;100535.59;5056415;28;69827;-48
2023/06/30 10:19:19;;;;;;;11.52;4.68;;;;;;;32.44;72.66;100547.25;5055145;28;66516;-48
2023/06/30 10:21:52;;;;;;;4.97;4.50;;;;;;;32.38;72.79;100550.94;5052536;28;70169;-46
2023/06/30 10:24:27;;;;;;;5.57;4.93;;;;;;;32.17;73.06;100532.56;5058774;28;66246;-48
2023/06/30 10:27:00;;;;;;;6.68;4.68;;;;;;;32.39;73.55;100566.16;5043735;28;69677;-50
2023/06/30 10:29:32;;;;;;;4.78;4.38;;;;;;;32.36;74.07;100563.91;5056010;28;66063;-49
2023/06/30 10:32:03;;;;;;;5.82;4.88;;;;;;;32.32;74.33;100551.91;5056949;28;70938;-49
2023/06/30 10:34:34;;;;;;;;;;;;;;;32.15;75.28;100548.22;5040840;28;66249;-51
2023/06/30 10:37:06;;;;;;;7.95;5.00;;;;;;;32.30;74.83;100542.34;5058473;28;69693;-47
2023/06/30 10:39:38;;;;;;;5.60;4.60;;;;;;;32.28;75.13;100534.44;5053851;28;66621;-46
2023/06/30 10:42:12;;;;;;;7.72;6.00;;;;;;;32.28;75.11;100545.28;5055906;28;69414;-45
2023/06/30 10:44:48;;;;;;;5.50;5.00;;;;;;;31.91;74.81;100475.00;5059098;28;65767;-48
2023/06/30 10:47:23;;;;;;;10.88;5.35;;;;;;;32.24;75.06;100539.50;5057518;28;70635;-47
2023/06/30 10:49:54;;;;;;;12.20;5.72;;;;;;;32.17;75.01;100532.56;5057150;28;66635;-48
2023/06/30 10:52:31;;;;;;;5.85;5.15;;;;;;;32.08;75.34;100523.94;5061033;28;69874;-46
2023/06/30 10:55:06;;;;;;;10.60;6.50;;;;;;;32.14;75.71;100543.88;5057771;28;66607;-45
2023/06/30 10:57:39;;;;;;;12.77;8.10;;;;;;;32.20;76.35;100553.78;5055316;28;70454;-45
2023/06/30 11:00:17;;;;;;;18.45;7.68;;;;;;;32.20;76.32;100548.34;5040841;28;66624;-47
2023/06/30 11:02:49;;;;;;;12.30;7.45;;;;;;;32.21;76.99;100540.00;5056280;28;70517;-47
2023/06/30 11:05:30;;;;;;;17.33;9.95;;;;;;;32.22;77.03;100563.34;5056666;28;66572;-43
2023/06/30 11:08:09;;;;;;;19.15;8.88;;;;;;;32.18;77.41;100556.75;5055586;28;69505;-43
2023/06/30 11:10:48;;;;;;;12.07;9.45;;;;;;;32.22;77.67;100562.53;5056654;28;65562;-45
2023/06/30 11:13:37;;;;;;;18.80;9.32;;;;;;;32.15;78.18;100573.50;5046742;28;70652;-45
2023/06/30 11:16:08;;;;;;;20.92;8.98;;;;;;;32.22;78.79;100576.91;5037187;28;65072;-47
2023/06/30 11:18:40;;;;;;;19.05;9.40;;;;;;;32.13;78.60;100563.94;5059244;28;69904;-46
2023/06/30 11:21:11;;;;;;;26.85;10.07;;;;;;;32.10;78.65;100570.66;5057784;28;66361;-46
2023/06/30 11:23:43;;;;;;;14.33;7.80;;;;;;;32.12;76.89;100563.09;5057729;28;70224;-47
2023/06/30 11:26:17;;;;;;;7.88;7.07;;;;;;;32.36;76.38;100607.34;5060211;28;65611;-45
2023/06/30 11:28:49;;;;;;;12.02;7.80;;;;;;;32.32;75.98;100600.75;5058818;28;70439;-47
2023/06/30 11:31:20;;;;;;;12.18;7.40;;;;;;;32.41;75.61;100618.31;5057164;28;65693;-47
2023/06/30 11:33:53;;;;;;;11.07;7.07;;;;;;;32.30;75.23;100616.44;5054251;28;69650;-47
2023/06/30 11:36:31;;;;;;;13.20;7.32;;;;;;;32.46;75.15;100651.06;5053481;28;65907;-47
2023/06/30 11:39:02;;;;;;;22.75;11.15;;;;;;;32.40;76.96;100651.13;5053631;28;71767;-45
2023/06/30 11:41:33;;;;;;;12.40;8.52;;;;;;;32.34;77.77;100658.31;5056197;28;65460;-47
2023/06/30 11:44:05;;;;;;;9.65;8.40;;;;;;;32.24;78.23;100668.97;5056381;28;70668;-48
2023/06/30 11:46:37;;;;;;;9.70;7.90;;;;;;;31.94;78.44;100642.72;5056982;28;66192;-46